Terminal Aerodrome Forecast
Issued by NWS

Home | Current Version | Previous Version | Text Only | Print | Product List | Glossary On
Versions: 1 2 3 4 5 6 7 8 9 10 11 12 13 14 15
292
FTUS42 KMLB 272330
TAFISM
TAF
KISM 272330Z 2800/2824 08006KT P6SM VCSH SCT030 BKN250
     FM280200 05005KT P6SM FEW030 SCT250
     FM281400 07009KT P6SM VCSH SCT025 BKN060
     FM281800 08011G18KT P6SM VCTS SCT040CB BKN080=

USA.gov is the U.S. government's official web portal to all federal, state and local government web resources and services.